createdAt,value
2024-02-29T00:02:14.229Z,15.20
2024-02-29T00:04:41.232Z,15.18
2024-02-29T00:07:08.253Z,15.68
2024-02-29T00:09:37.058Z,14.68
2024-02-29T00:12:05.326Z,15.13
2024-02-29T00:14:32.423Z,14.50
2024-02-29T00:17:01.798Z,14.80
2024-02-29T00:19:29.328Z,16.33
2024-02-29T00:21:56.603Z,14.00
2024-02-29T00:24:23.512Z,15.73
2024-02-29T00:26:50.357Z,14.52
2024-02-29T00:29:17.178Z,13.93
2024-02-29T00:31:47.790Z,15.15
2024-02-29T00:34:15.744Z,14.82
2024-02-29T00:36:42.799Z,15.27
2024-02-29T00:39:14.781Z,14.93
2024-02-29T00:41:43.194Z,14.52
2024-02-29T00:44:10.953Z,14.10
2024-02-29T00:46:41.880Z,13.90
2024-02-29T00:49:09.037Z,15.25
2024-02-29T00:51:36.048Z,13.93
2024-02-29T00:54:02.938Z,15.23
2024-02-29T00:56:29.762Z,14.73
2024-02-29T00:58:56.608Z,13.63
2024-02-29T01:01:23.500Z,13.50
2024-02-29T01:03:50.352Z,13.38
2024-02-29T01:06:17.450Z,13.63
2024-02-29T01:08:44.432Z,13.60
2024-02-29T01:11:11.441Z,13.25
2024-02-29T01:13:38.758Z,13.07
2024-02-29T01:16:06.022Z,14.48
2024-02-29T01:18:32.973Z,13.88
2024-02-29T01:20:59.864Z,13.82
2024-02-29T01:23:26.715Z,14.18
2024-02-29T01:25:53.492Z,12.85
2024-02-29T01:28:20.280Z,14.35
2024-02-29T01:30:47.147Z,14.13
2024-02-29T01:33:14.026Z,12.68
2024-02-29T01:35:41.003Z,13.48
2024-02-29T01:38:08.553Z,13.32
2024-02-29T01:40:35.525Z,13.43
2024-02-29T01:43:03.654Z,13.82
2024-02-29T01:45:30.655Z,13.43
2024-02-29T01:47:57.523Z,13.02
2024-02-29T01:50:25.261Z,12.50
2024-02-29T01:52:52.435Z,14.05
2024-02-29T01:55:19.365Z,13.35
2024-02-29T01:57:46.924Z,14.02
2024-02-29T02:00:15.241Z,13.52
2024-02-29T02:02:42.173Z,13.23
2024-02-29T02:05:09.195Z,13.95
2024-02-29T02:07:40.801Z,12.82
2024-02-29T02:10:09.502Z,13.60
2024-02-29T02:12:36.699Z,13.75
2024-02-29T02:15:04.437Z,13.43
2024-02-29T02:17:33.709Z,13.80
2024-02-29T02:20:01.765Z,14.02
2024-02-29T02:22:29.878Z,14.60
2024-02-29T02:24:57.594Z,13.10
2024-02-29T02:27:24.736Z,13.93
2024-02-29T02:29:51.504Z,14.05
2024-02-29T02:32:18.206Z,13.75
2024-02-29T02:34:45.747Z,13.63
2024-02-29T02:37:13.462Z,13.00
2024-02-29T02:39:40.526Z,15.05
2024-02-29T02:42:07.758Z,12.93
2024-02-29T02:44:34.577Z,13.55
2024-02-29T02:47:01.306Z,14.10
2024-02-29T02:49:28.190Z,13.25
2024-02-29T02:51:55.173Z,13.15
2024-02-29T02:54:22.092Z,14.88
2024-02-29T02:56:48.856Z,12.70
2024-02-29T02:59:15.628Z,14.52
2024-02-29T03:01:42.548Z,13.02
2024-02-29T03:04:09.568Z,14.05
2024-02-29T03:06:36.462Z,13.93
2024-02-29T03:09:04.022Z,13.77
2024-02-29T03:11:30.882Z,14.45
2024-02-29T03:13:59.000Z,14.30
2024-02-29T03:16:25.938Z,14.23
2024-02-29T03:18:52.909Z,15.02
2024-02-29T03:21:19.819Z,13.82
2024-02-29T03:23:46.752Z,15.43
2024-02-29T03:26:13.459Z,15.48
2024-02-29T03:28:40.846Z,14.95
2024-02-29T03:31:12.313Z,14.05
2024-02-29T03:33:39.219Z,14.82
2024-02-29T03:36:06.428Z,16.67
2024-02-29T03:38:33.412Z,15.35
2024-02-29T03:41:00.072Z,17.15
2024-02-29T03:43:26.871Z,16.92
2024-02-29T03:45:53.771Z,16.85
2024-02-29T03:48:20.604Z,16.98
2024-02-29T03:50:47.409Z,16.50
2024-02-29T03:53:14.200Z,17.85
2024-02-29T03:55:41.110Z,16.58
2024-02-29T03:58:07.969Z,16.45
2024-02-29T04:00:36.354Z,17.00
2024-02-29T04:03:03.354Z,16.90
2024-02-29T04:05:30.322Z,16.55
2024-02-29T04:08:01.904Z,17.23
2024-02-29T04:10:29.170Z,17.35
2024-02-29T04:12:56.857Z,17.42
2024-02-29T04:15:23.839Z,17.50
2024-02-29T04:17:50.658Z,16.88
2024-02-29T04:20:17.712Z,17.63
2024-02-29T04:22:44.497Z,17.27
2024-02-29T04:25:12.338Z,17.48
2024-02-29T04:27:40.272Z,17.00
2024-02-29T04:30:10.317Z,17.02
2024-02-29T04:35:07.224Z,15.95
2024-02-29T04:37:34.152Z,16.63
2024-02-29T04:40:01.202Z,17.25
2024-02-29T04:42:28.178Z,17.58
2024-02-29T04:44:54.961Z,17.38
2024-02-29T04:47:21.991Z,18.30
2024-02-29T04:49:49.134Z,17.90
2024-02-29T04:52:16.018Z,17.55
2024-02-29T04:54:43.250Z,17.42
2024-02-29T04:57:10.220Z,17.23
2024-02-29T04:59:37.619Z,17.98
2024-02-29T05:02:07.532Z,17.88
2024-02-29T05:04:34.594Z,19.00
2024-02-29T05:07:01.377Z,19.92
2024-02-29T05:09:28.199Z,20.02
2024-02-29T05:11:57.770Z,20.42
2024-02-29T05:14:24.614Z,20.83
2024-02-29T05:16:51.390Z,20.45
2024-02-29T05:19:19.105Z,20.95
2024-02-29T05:21:47.185Z,20.13
2024-02-29T05:24:14.144Z,19.15
2024-02-29T05:26:40.926Z,20.23
2024-02-29T05:29:08.859Z,18.50
2024-02-29T05:31:35.710Z,20.48
2024-02-29T05:34:02.544Z,19.33
2024-02-29T05:36:29.354Z,19.90
2024-02-29T05:38:56.196Z,18.67
2024-02-29T05:41:23.065Z,19.45
2024-02-29T05:43:50.774Z,21.38
2024-02-29T05:46:17.698Z,22.00
2024-02-29T05:48:44.593Z,22.30
2024-02-29T05:51:12.612Z,22.92
2024-02-29T05:53:39.776Z,24.13
2024-02-29T05:56:06.633Z,23.25
2024-02-29T05:58:33.421Z,24.30
2024-02-29T06:01:00.601Z,27.83
2024-02-29T06:03:27.574Z,23.77
2024-02-29T06:05:54.606Z,23.50
2024-02-29T06:08:21.367Z,24.13
2024-02-29T06:10:48.534Z,24.20
2024-02-29T06:13:15.627Z,23.05
2024-02-29T06:15:43.328Z,23.00
2024-02-29T06:18:11.961Z,23.90
2024-02-29T06:20:39.015Z,22.30
2024-02-29T06:23:06.850Z,23.63
2024-02-29T06:25:33.648Z,24.20
2024-02-29T06:28:00.541Z,23.00
2024-02-29T06:30:33.355Z,23.38
2024-02-29T06:33:01.559Z,22.52
2024-02-29T06:35:28.688Z,23.58
2024-02-29T06:37:55.536Z,23.65
2024-02-29T06:40:25.303Z,24.67
2024-02-29T06:42:52.163Z,23.63
2024-02-29T06:45:19.177Z,23.25
2024-02-29T06:47:46.384Z,23.33
2024-02-29T06:50:13.665Z,23.13
2024-02-29T06:52:41.587Z,23.52
2024-02-29T06:55:09.335Z,23.02
2024-02-29T06:57:36.943Z,21.60
2024-02-29T07:00:06.917Z,22.10
2024-02-29T07:02:34.145Z,22.33
2024-02-29T07:05:00.994Z,22.00
2024-02-29T07:07:28.129Z,22.25
2024-02-29T07:09:55.587Z,22.02
2024-02-29T07:12:22.593Z,21.80
2024-02-29T07:14:50.334Z,21.83
2024-02-29T07:17:17.950Z,21.90
2024-02-29T07:19:44.682Z,21.52
2024-02-29T07:22:12.363Z,21.35
2024-02-29T07:24:39.175Z,21.10
2024-02-29T07:27:06.023Z,20.25
2024-02-29T07:29:32.764Z,22.05
2024-02-29T07:31:59.567Z,20.95
2024-02-29T07:34:26.558Z,20.70
2024-02-29T07:36:53.348Z,21.08
2024-02-29T07:39:20.185Z,21.15
2024-02-29T07:41:46.877Z,20.33
2024-02-29T07:44:14.331Z,21.33
2024-02-29T07:46:41.266Z,20.95
2024-02-29T07:49:08.115Z,21.38
2024-02-29T07:51:34.981Z,21.60
2024-02-29T07:54:02.540Z,21.23
2024-02-29T07:56:30.456Z,23.05
2024-02-29T07:58:57.560Z,23.25
2024-02-29T08:01:24.545Z,20.55
2024-02-29T08:03:51.545Z,21.02
2024-02-29T08:06:18.372Z,21.35
2024-02-29T08:08:45.108Z,20.52
2024-02-29T08:11:12.006Z,20.88
2024-02-29T08:13:39.524Z,20.10
2024-02-29T08:16:07.476Z,20.08
2024-02-29T08:18:39.315Z,20.77
2024-02-29T08:21:06.156Z,20.38
2024-02-29T08:23:33.006Z,20.33
2024-02-29T08:25:59.922Z,20.15
2024-02-29T08:28:26.814Z,20.45
2024-02-29T08:30:53.755Z,20.63
2024-02-29T08:33:20.591Z,21.90
2024-02-29T08:35:47.753Z,20.90
2024-02-29T08:38:14.526Z,21.23
2024-02-29T08:40:41.257Z,21.60
2024-02-29T08:43:09.984Z,22.40
2024-02-29T08:45:36.850Z,22.65
2024-02-29T08:48:04.293Z,21.25
2024-02-29T08:50:31.128Z,20.75
2024-02-29T08:52:57.858Z,22.05
2024-02-29T08:55:25.454Z,21.48
2024-02-29T08:57:52.304Z,22.63
2024-02-29T09:00:19.462Z,21.05
2024-02-29T09:02:46.276Z,20.55
2024-02-29T09:05:13.017Z,22.02
2024-02-29T09:07:39.774Z,21.15
2024-02-29T09:10:07.991Z,21.00
2024-02-29T09:12:35.733Z,20.65
2024-02-29T09:15:03.754Z,21.35
2024-02-29T09:17:30.638Z,21.10
2024-02-29T09:19:57.401Z,20.70
2024-02-29T09:22:24.534Z,21.75
2024-02-29T09:24:51.638Z,20.70
2024-02-29T09:27:19.259Z,19.95
2024-02-29T09:29:46.016Z,20.52
2024-02-29T09:32:12.752Z,20.95
2024-02-29T09:34:43.408Z,22.25
2024-02-29T09:37:13.392Z,21.55
2024-02-29T09:39:40.627Z,21.20
2024-02-29T09:42:14.014Z,22.33
2024-02-29T09:44:43.756Z,20.17
2024-02-29T09:47:12.538Z,21.73
2024-02-29T09:49:39.922Z,20.95
2024-02-29T09:52:08.063Z,21.20
2024-02-29T09:54:37.084Z,21.75
2024-02-29T09:57:04.011Z,21.77
2024-02-29T09:59:31.694Z,23.25
2024-02-29T10:01:58.831Z,22.15
2024-02-29T10:04:28.038Z,21.45
2024-02-29T10:06:55.871Z,22.33
2024-02-29T10:09:23.002Z,21.95
2024-02-29T10:11:50.242Z,21.55
2024-02-29T10:14:26.715Z,22.02
2024-02-29T10:16:55.046Z,21.23
2024-02-29T10:19:23.179Z,21.65
2024-02-29T10:21:51.504Z,21.10
2024-02-29T10:24:25.699Z,21.35
2024-02-29T10:26:53.277Z,20.23
2024-02-29T10:29:22.492Z,21.17
2024-02-29T10:31:50.639Z,19.95
2024-02-29T10:34:20.463Z,20.75
2024-02-29T10:36:47.684Z,20.95
2024-02-29T10:39:14.575Z,24.80
2024-02-29T10:41:48.889Z,23.77
2024-02-29T10:44:18.720Z,21.23
2024-02-29T10:46:48.871Z,20.98
2024-02-29T10:49:39.003Z,21.40
2024-02-29T10:52:22.142Z,19.80
